Time;durP1;ratioP1;P1;durP2;ratioP2;P2;SDS_P1;SDS_P2;PMS_P1;PMS_P2;Temp;Humidity;BMP_temperature;BMP_pressure;BME280_temperature;BME280_humidity;BME280_pressure;Samples;Min_cycle;Max_cycle;Signal;HPM_P1;HPM_P2
2023/09/14 00:02:12;;;;;;;5.35;3.33;;;;;;;13.82;100.00;102070.75;5052581;28;20021;-67
2023/09/14 00:04:38;;;;;;;10.27;4.10;;;;;;;13.80;100.00;102073.69;5054684;28;20076;-68
2023/09/14 00:07:03;;;;;;;8.82;3.72;;;;;;;13.76;100.00;102067.00;5067853;28;20029;-67
2023/09/14 00:09:28;;;;;;;6.40;3.65;;;;;;;13.76;100.00;102067.00;5054451;28;20032;-67
2023/09/14 00:11:53;;;;;;;5.03;3.50;;;;;;;13.69;100.00;102074.38;5054910;28;20036;-68
2023/09/14 00:14:19;;;;;;;9.90;3.90;;;;;;;13.77;100.00;102078.75;5054613;28;20029;-67
2023/09/14 00:16:46;;;;;;;7.75;3.72;;;;;;;13.72;100.00;102081.25;5054818;28;20033;-68
2023/09/14 00:19:12;;;;;;;5.85;3.70;;;;;;;13.57;100.00;102079.66;5054102;28;20033;-67
2023/09/14 00:21:38;;;;;;;7.53;3.60;;;;;;;13.61;100.00;102074.63;5053929;28;20483;-67
2023/09/14 00:24:05;;;;;;;7.35;3.88;;;;;;;13.43;100.00;102080.75;5054663;28;20079;-67
2023/09/14 00:26:30;;;;;;;8.38;3.83;;;;;;;13.58;100.00;102077.78;5054781;28;20036;-67
2023/09/14 00:28:55;;;;;;;7.60;3.67;;;;;;;13.57;100.00;102073.38;5037836;28;20033;-67
2023/09/14 00:31:21;;;;;;;10.52;3.90;;;;;;;13.56;100.00;102071.72;5054336;28;20043;-67
2023/09/14 00:33:46;;;;;;;6.47;3.25;;;;;;;13.52;100.00;102081.34;5054417;28;20029;-67
2023/09/14 00:36:12;;;;;;;9.70;3.85;;;;;;;13.55;100.00;102070.88;5066245;28;20135;-67
2023/09/14 00:38:37;;;;;;;4.88;3.05;;;;;;;13.51;100.00;102082.38;5052071;28;20277;-67
2023/09/14 00:41:02;;;;;;;5.18;3.40;;;;;;;13.49;100.00;102065.47;5053841;28;20498;-67
2023/09/14 00:43:27;;;;;;;9.85;3.70;;;;;;;13.39;100.00;102071.34;5054076;28;20025;-67
2023/09/14 00:45:56;;;;;;;6.50;3.50;;;;;;;13.25;100.00;102065.91;5054183;28;20029;-67
2023/09/14 00:48:21;;;;;;;8.40;3.50;;;;;;;13.37;100.00;102071.56;5054750;28;20426;-66
2023/09/14 00:50:47;;;;;;;8.90;3.80;;;;;;;13.43;100.00;102075.31;5055448;28;20031;-67
2023/09/14 00:53:14;;;;;;;7.25;3.22;;;;;;;13.36;100.00;102079.94;5053935;28;20025;-67
2023/09/14 00:55:43;;;;;;;6.50;3.35;;;;;;;13.29;100.00;102071.78;5054171;28;20037;-67
2023/09/14 00:58:08;;;;;;;7.68;3.40;;;;;;;13.32;100.00;102067.78;5053793;28;20453;-67
2023/09/14 01:00:34;;;;;;;8.75;3.45;;;;;;;13.33;100.00;102066.72;5051606;28;20025;-67
2023/09/14 01:02:59;;;;;;;4.70;3.20;;;;;;;13.40;100.00;102073.03;5053753;28;20025;-67
2023/09/14 01:05:28;;;;;;;9.50;3.80;;;;;;;13.35;100.00;102070.13;5069159;28;20078;-67
2023/09/14 01:07:54;;;;;;;6.20;3.53;;;;;;;13.39;100.00;102071.34;5064361;28;20123;-69
2023/09/14 01:10:19;;;;;;;14.30;3.90;;;;;;;13.28;100.00;102070.91;5053092;28;20061;-67
2023/09/14 01:12:47;;;;;;;9.07;3.45;;;;;;;13.33;100.00;102075.75;5052784;28;20492;-67
2023/09/14 01:15:19;;;;;;;6.80;3.80;;;;;;;13.16;100.00;102072.63;5035599;28;20411;-68
2023/09/14 01:17:50;;;;;;;11.80;3.90;;;;;;;13.14;100.00;102080.16;5053680;28;20165;-68
2023/09/14 01:20:43;;;;;;;7.07;3.80;;;;;;;13.23;100.00;102078.88;5053381;28;20507;-67
2023/09/14 01:24:00;;;;;;;8.98;3.70;;;;;;;13.30;100.00;102078.88;5052902;28;20380;-68
2023/09/14 01:26:27;;;;;;;7.93;4.05;;;;;;;13.05;100.00;102078.72;5018860;28;20044;-68
2023/09/14 01:28:53;;;;;;;6.47;3.72;;;;;;;13.11;100.00;102080.59;5053529;28;20021;-68
2023/09/14 01:31:18;;;;;;;6.75;3.63;;;;;;;13.10;100.00;102079.75;5035295;28;20465;-67
2023/09/14 01:33:48;;;;;;;8.75;3.70;;;;;;;13.14;100.00;102077.44;5053559;28;20025;-68
2023/09/14 01:36:33;;;;;;;10.40;4.15;;;;;;;13.14;100.00;102074.72;5052821;28;20473;-67
2023/09/14 01:39:01;;;;;;;7.93;3.42;;;;;;;13.04;100.00;102079.75;5069774;28;20083;-67
2023/09/14 01:41:26;;;;;;;7.95;3.65;;;;;;;13.00;100.00;102079.34;5059729;28;20029;-67
2023/09/14 01:43:53;;;;;;;8.43;3.40;;;;;;;13.00;100.00;102078.50;5053290;28;20036;-68
2023/09/14 01:46:19;;;;;;;7.57;3.70;;;;;;;13.02;100.00;102073.72;5052807;28;20163;-68
2023/09/14 01:48:45;;;;;;;6.68;3.13;;;;;;;12.97;100.00;102068.06;5053100;28;20123;-68
2023/09/14 01:51:11;;;;;;;7.63;3.22;;;;;;;12.98;100.00;102075.16;5053325;28;20040;-67
2023/09/14 01:53:36;;;;;;;9.02;3.90;;;;;;;12.90;100.00;102073.50;5052748;28;20079;-68
2023/09/14 01:56:02;;;;;;;6.68;3.40;;;;;;;12.90;100.00;102073.50;5059329;28;20491;-68
2023/09/14 01:58:29;;;;;;;6.43;3.58;;;;;;;12.77;100.00;102074.34;5052174;28;20074;-68
2023/09/14 02:00:54;;;;;;;5.82;3.00;;;;;;;12.89;100.00;102072.69;5031775;28;20025;-67
2023/09/14 02:03:19;;;;;;;5.93;3.33;;;;;;;12.75;100.00;102071.84;5034519;28;20037;-67
2023/09/14 02:05:45;;;;;;;8.45;3.05;;;;;;;12.75;100.00;102068.28;5052774;28;20028;-67
2023/09/14 02:08:10;;;;;;;4.07;2.80;;;;;;;12.84;100.00;102068.91;5052470;28;20025;-68
2023/09/14 02:10:35;;;;;;;8.13;2.85;;;;;;;12.72;100.00;102071.44;5051837;28;20037;-68
2023/09/14 02:13:01;;;;;;;5.05;2.78;;;;;;;12.65;100.00;102067.88;5052720;28;20112;-67
2023/09/14 02:15:26;;;;;;;5.88;3.10;;;;;;;12.68;100.00;102073.75;5052457;28;20029;-68
2023/09/14 02:17:51;;;;;;;8.13;3.08;;;;;;;12.74;100.00;102070.19;5052894;28;20111;-68
2023/09/14 02:20:17;;;;;;;4.80;2.88;;;;;;;12.66;100.00;102064.13;5051738;28;20069;-68
2023/09/14 02:22:42;;;;;;;7.85;2.92;;;;;;;12.64;100.00;102064.31;5052580;28;20032;-68
2023/09/14 02:25:08;;;;;;;9.98;3.40;;;;;;;12.52;100.00;102061.41;5052189;28;20033;-68
2023/09/14 02:27:34;;;;;;;6.82;3.20;;;;;;;12.53;100.00;102063.06;5052246;28;20503;-69
2023/09/14 02:30:00;;;;;;;5.95;3.08;;;;;;;12.59;100.00;102056.81;5052629;28;20033;-68
2023/09/14 02:32:25;;;;;;;5.07;3.15;;;;;;;12.60;100.00;102060.34;5052318;28;20457;-68
2023/09/14 02:34:51;;;;;;;3.40;2.70;;;;;;;12.63;100.00;102059.09;5052388;28;20033;-67
2023/09/14 02:37:16;;;;;;;7.65;2.70;;;;;;;12.60;100.00;102063.06;5052213;28;20366;-68
2023/09/14 02:39:41;;;;;;;5.95;2.78;;;;;;;12.54;100.00;102053.88;5051825;28;20461;-68
2023/09/14 02:42:07;;;;;;;7.47;3.38;;;;;;;12.53;100.00;102046.78;5052384;28;20132;-68
2023/09/14 02:44:32;;;;;;;8.73;2.80;;;;;;;12.47;100.00;102053.06;5051776;28;20029;-69
2023/09/14 02:46:57;;;;;;;6.22;2.75;;;;;;;12.45;100.00;102046.97;5034337;28;20036;-69
2023/09/14 02:49:23;;;;;;;5.70;2.60;;;;;;;12.44;100.00;102053.47;5052364;28;20536;-68
2023/09/14 02:51:48;;;;;;;7.20;2.85;;;;;;;12.37;100.00;102052.63;5034438;28;20033;-69
2023/09/14 02:54:14;;;;;;;6.80;2.92;;;;;;;12.35;100.00;102054.69;5053844;28;20028;-68
2023/09/14 02:56:40;;;;;;;8.32;2.90;;;;;;;12.28;100.00;102051.16;5070879;28;20028;-69
2023/09/14 02:59:06;;;;;;;5.70;2.65;;;;;;;12.34;100.00;102055.75;5071976;28;20031;-68
2023/09/14 03:01:32;;;;;;;5.35;2.50;;;;;;;12.36;100.00;102050.94;5069704;28;20032;-68
2023/09/14 03:03:58;;;;;;;5.18;2.63;;;;;;;12.30;100.00;102051.78;5071960;28;20481;-68
2023/09/14 03:06:26;;;;;;;6.28;2.90;;;;;;;12.34;100.00;102043.00;5053971;28;20024;-68
2023/09/14 03:08:51;;;;;;;4.85;2.95;;;;;;;12.22;100.00;102053.63;5072187;28;20538;-68
2023/09/14 03:11:17;;;;;;;7.38;2.80;;;;;;;12.21;100.00;102052.00;5063480;28;20112;-68
2023/09/14 03:13:42;;;;;;;5.78;3.00;;;;;;;12.16;100.00;102043.59;5056212;28;20055;-68
2023/09/14 03:16:07;;;;;;;5.25;3.00;;;;;;;12.23;100.00;102044.47;5055278;28;20163;-68
2023/09/14 03:18:33;;;;;;;5.32;3.00;;;;;;;12.11;100.00;102053.41;5055863;28;20116;-68
2023/09/14 03:20:58;;;;;;;6.43;2.85;;;;;;;12.22;100.00;102045.50;5055923;28;20471;-68
2023/09/14 03:23:23;;;;;;;4.68;2.67;;;;;;;12.17;100.00;102049.91;5055627;28;20418;-69
2023/09/14 03:25:50;;;;;;;8.27;3.38;;;;;;;12.39;100.00;102048.66;5056095;28;20037;-69
2023/09/14 03:28:16;;;;;;;3.00;2.60;;;;;;;12.18;100.00;102056.97;5055779;28;20033;-68
2023/09/14 03:30:42;;;;;;;4.57;1.75;;;;;;;12.38;100.00;102055.13;5055429;28;20487;-68
2023/09/14 03:33:08;;;;;;;4.82;2.85;;;;;;;12.09;100.00;102061.75;5055656;28;20029;-69
2023/09/14 03:35:33;;;;;;;5.25;3.15;;;;;;;12.09;100.00;102072.59;5055607;28;20033;-68
2023/09/14 03:38:00;;;;;;;6.18;3.20;;;;;;;12.05;100.00;102060.50;5069701;28;20039;-68
2023/09/14 03:40:25;;;;;;;7.20;3.53;;;;;;;12.07;100.00;102058.41;5075394;28;20056;-68
2023/09/14 03:42:50;;;;;;;7.25;3.67;;;;;;;12.16;100.00;102059.88;5075472;28;20496;-68
2023/09/14 03:45:16;;;;;;;7.25;3.50;;;;;;;12.13;100.00;102057.59;5057534;28;20028;-68
2023/09/14 03:47:42;;;;;;;8.48;3.45;;;;;;;12.16;100.00;102062.59;5055322;28;20108;-68
2023/09/14 03:50:08;;;;;;;8.68;3.95;;;;;;;12.05;100.00;102065.94;5055099;28;20044;-68
2023/09/14 03:52:35;;;;;;;7.18;3.80;;;;;;;12.04;100.00;102056.13;5059569;28;20043;-68
2023/09/14 03:55:00;;;;;;;6.35;3.60;;;;;;;12.09;100.00;102061.75;5060889;28;20035;-68
2023/09/14 03:57:26;;;;;;;9.38;3.78;;;;;;;12.09;100.00;102055.50;5055822;28;20100;-68
2023/09/14 03:59:51;;;;;;;6.57;3.80;;;;;;;12.10;100.00;102058.00;5049380;28;20048;-69
2023/09/14 04:02:17;;;;;;;7.53;3.97;;;;;;;11.94;100.00;102053.81;5063621;28;20044;-68
2023/09/14 04:04:44;;;;;;;7.32;4.00;;;;;;;11.94;100.00;102052.94;5070048;28;20045;-68
2023/09/14 04:07:09;;;;;;;6.18;3.70;;;;;;;12.02;100.00;102055.50;5054912;28;20033;-69
2023/09/14 04:09:34;;;;;;;8.40;4.10;;;;;;;11.96;100.00;102053.59;5068359;28;20093;-68
2023/09/14 04:12:00;;;;;;;8.43;4.28;;;;;;;11.95;100.00;102058.16;5074961;28;20024;-68
2023/09/14 04:14:25;;;;;;;7.13;4.05;;;;;;;11.89;100.00;102046.22;5074388;28;20494;-68
2023/09/14 04:16:59;;;;;;;7.68;4.10;;;;;;;11.97;100.00;102052.53;5044299;28;20120;-68
2023/09/14 04:19:25;;;;;;;7.82;4.22;;;;;;;12.03;100.00;102049.88;5054710;28;20032;-69
2023/09/14 04:21:50;;;;;;;8.70;4.05;;;;;;;12.04;100.00;102051.50;5055076;28;20037;-69
2023/09/14 04:24:15;;;;;;;7.07;4.35;;;;;;;11.97;100.00;102049.81;5053946;28;20071;-68
2023/09/14 04:26:40;;;;;;;7.38;2.78;;;;;;;12.19;100.00;102054.06;5054383;28;20057;-68
2023/09/14 04:29:06;;;;;;;6.70;2.60;;;;;;;12.23;100.00;102058.03;5053872;28;20078;-69
2023/09/14 04:31:31;;;;;;;7.03;4.03;;;;;;;12.00;100.00;102060.28;5054664;28;20418;-68
2023/09/14 04:33:56;;;;;;;16.63;4.20;;;;;;;12.02;100.00;102050.06;5036524;28;20025;-69
2023/09/14 04:36:22;;;;;;;6.88;4.18;;;;;;;12.00;100.00;102054.84;5054161;28;20478;-68
2023/09/14 04:38:48;;;;;;;8.02;4.10;;;;;;;11.94;100.00;102052.94;5054308;28;20104;-68
2023/09/14 04:41:13;;;;;;;6.45;3.83;;;;;;;11.94;100.00;102052.94;5054372;28;20118;-68
2023/09/14 04:43:39;;;;;;;8.32;3.75;;;;;;;11.92;100.00;102055.00;5053283;28;20104;-67
2023/09/14 04:46:04;;;;;;;6.88;3.92;;;;;;;11.85;100.00;102054.97;5053901;28;20479;-68
2023/09/14 04:48:30;;;;;;;8.38;4.30;;;;;;;11.81;100.00;102049.13;5036120;28;20044;-68
2023/09/14 04:50:56;;;;;;;8.88;4.30;;;;;;;11.91;100.00;102054.16;5054194;28;20032;-68
2023/09/14 04:53:26;;;;;;;7.50;4.07;;;;;;;11.88;100.00;102055.41;5054028;28;20029;-68
2023/09/14 04:55:52;;;;;;;8.40;4.25;;;;;;;11.88;100.00;102058.13;5053934;28;20431;-68
2023/09/14 04:58:18;;;;;;;8.63;4.28;;;;;;;11.88;100.00;102052.72;5053170;28;20037;-68
2023/09/14 05:00:47;;;;;;;7.38;4.07;;;;;;;11.87;100.00;102058.34;5051240;28;20557;-68
2023/09/14 05:03:12;;;;;;;9.50;4.18;;;;;;;11.92;100.00;102055.00;5053411;28;20155;-69
2023/09/14 05:05:37;;;;;;;7.43;4.28;;;;;;;11.85;100.00;102050.41;5054695;28;20376;-68
2023/09/14 05:08:03;;;;;;;10.05;4.07;;;;;;;11.80;100.00;102052.88;5073641;28;20060;-68
2023/09/14 05:10:28;;;;;;;9.20;4.40;;;;;;;11.77;100.00;102052.47;5055533;28;20450;-68
2023/09/14 05:12:54;;;;;;;8.10;4.20;;;;;;;11.79;100.00;102050.38;5064429;28;20037;-68
2023/09/14 05:15:19;;;;;;;7.78;4.00;;;;;;;11.80;100.00;102050.16;5053375;28;20063;-68
2023/09/14 05:17:44;;;;;;;9.93;4.57;;;;;;;11.76;100.00;102048.91;5053331;28;20461;-69
2023/09/14 05:20:14;;;;;;;10.10;4.43;;;;;;;11.66;100.00;102060.13;5053566;28;20108;-68
2023/09/14 05:22:40;;;;;;;10.25;4.20;;;;;;;11.73;100.00;102068.31;5053581;28;20380;-68
2023/09/14 05:25:06;;;;;;;6.60;3.75;;;;;;;11.76;100.00;102067.91;5068756;28;20087;-68
2023/09/14 05:27:38;;;;;;;7.18;4.45;;;;;;;11.78;100.00;102067.69;5051894;28;20029;-68
2023/09/14 05:30:11;;;;;;;11.05;4.25;;;;;;;11.63;100.00;102063.25;5053372;28;20029;-68
2023/09/14 05:32:38;;;;;;;8.77;4.82;;;;;;;11.74;100.00;102075.38;5053074;28;20053;-68
2023/09/14 05:35:06;;;;;;;8.00;4.40;;;;;;;11.62;100.00;102077.00;5052901;28;20029;-69
2023/09/14 05:37:32;;;;;;;8.02;4.47;;;;;;;11.64;100.00;102083.91;5052972;28;20450;-67
2023/09/14 05:39:57;;;;;;;11.18;4.32;;;;;;;11.71;100.00;102081.22;5052937;28;20029;-68
2023/09/14 05:42:23;;;;;;;9.05;4.60;;;;;;;11.62;100.00;102088.69;5052623;28;20528;-67
2023/09/14 05:44:49;;;;;;;12.55;5.00;;;;;;;11.77;100.00;102088.53;5051134;28;20039;-67
2023/09/14 05:47:14;;;;;;;10.10;4.47;;;;;;;11.84;100.00;102086.69;5073928;28;20042;-67
2023/09/14 05:49:40;;;;;;;11.98;4.50;;;;;;;11.82;100.00;102090.63;5073786;28;20136;-67
2023/09/14 05:52:06;;;;;;;7.25;4.65;;;;;;;11.84;100.00;102081.28;5073050;28;20032;-68
2023/09/14 05:54:31;;;;;;;12.43;4.50;;;;;;;11.87;100.00;102086.28;5054871;28;20032;-68
2023/09/14 05:56:57;;;;;;;10.48;4.78;;;;;;;11.96;100.00;102086.16;5065196;28;20483;-67
2023/09/14 05:59:22;;;;;;;9.10;4.63;;;;;;;12.00;100.00;102087.41;5055636;28;20098;-70
2023/09/14 06:01:48;;;;;;;8.80;4.97;;;;;;;12.02;100.00;102090.75;5088923;28;20035;-71
2023/09/14 06:04:13;;;;;;;9.23;5.00;;;;;;;12.04;100.00;102091.38;5048210;28;20048;-70
2023/09/14 06:06:38;;;;;;;12.07;4.70;;;;;;;12.17;100.00;102085.16;5086319;28;20024;-71
2023/09/14 06:09:04;;;;;;;9.40;5.25;;;;;;;12.20;100.00;102084.75;5092911;28;20363;-69
2023/09/14 06:11:30;;;;;;;9.00;5.10;;;;;;;12.33;100.00;102084.75;5092881;28;20028;-68
2023/09/14 06:13:55;;;;;;;6.55;3.60;;;;;;;12.51;100.00;102081.44;5092985;28;20436;-68
2023/09/14 06:16:20;;;;;;;11.95;5.20;;;;;;;12.49;100.00;102085.44;5058238;28;20601;-68
2023/09/14 06:18:48;;;;;;;17.08;5.80;;;;;;;12.55;100.00;102088.13;5052711;28;20112;-67
2023/09/14 06:21:14;;;;;;;9.55;4.20;;;;;;;12.73;100.00;102089.41;5052556;28;20083;-66
2023/09/14 06:23:40;;;;;;;15.65;6.60;;;;;;;12.64;100.00;102090.66;5052463;28;20029;-68
2023/09/14 06:26:05;;;;;;;16.05;5.85;;;;;;;12.64;100.00;102094.19;5052593;28;20029;-70
2023/09/14 06:28:31;;;;;;;20.95;6.05;;;;;;;12.76;100.00;102089.81;5052337;28;20614;-68
2023/09/14 06:30:56;;;;;;;13.93;6.25;;;;;;;12.81;100.00;102091.91;5052113;28;20025;-69
2023/09/14 06:33:21;;;;;;;11.35;5.43;;;;;;;12.87;100.00;102082.91;5052576;28;20067;-69
2023/09/14 06:35:47;;;;;;;16.83;5.82;;;;;;;12.96;100.00;102088.13;5052134;28;20033;-67
2023/09/14 06:38:12;;;;;;;10.27;5.50;;;;;;;12.93;100.00;102094.81;5052390;28;20061;-67
2023/09/14 06:40:37;;;;;;;13.80;5.50;;;;;;;13.00;100.00;102100.22;5052188;28;20025;-68
2023/09/14 06:43:04;;;;;;;15.40;6.22;;;;;;;13.09;100.00;102091.66;5051715;28;20025;-69
2023/09/14 06:45:30;;;;;;;12.07;6.07;;;;;;;13.19;100.00;102085.78;5051234;28;20412;-70
2023/09/14 06:47:55;;;;;;;13.30;6.15;;;;;;;13.24;100.00;102091.44;5056604;28;20032;-66
2023/09/14 06:50:20;;;;;;;10.45;6.13;;;;;;;13.35;100.00;102087.25;5056633;28;20349;-67
2023/09/14 06:52:45;;;;;;;13.45;6.32;;;;;;;13.34;100.00;102090.19;5056508;28;20037;-69
2023/09/14 06:55:11;;;;;;;12.60;6.75;;;;;;;13.48;100.00;102091.81;5056522;28;20448;-69
2023/09/14 06:57:36;;;;;;;13.88;6.97;;;;;;;13.52;100.00;102093.06;5056160;28;20028;-70
2023/09/14 07:00:07;;;;;;;14.90;7.30;;;;;;;13.56;100.00;102094.31;5063342;28;20035;-67
2023/09/14 07:02:32;;;;;;;17.95;7.25;;;;;;;13.67;100.00;102092.78;5084421;28;20383;-67
2023/09/14 07:04:58;;;;;;;12.73;7.45;;;;;;;13.70;100.00;102099.69;5059877;28;20044;-70
2023/09/14 07:07:24;;;;;;;11.98;7.10;;;;;;;13.85;100.00;102102.97;5056212;28;20029;-69
2023/09/14 07:09:49;;;;;;;14.05;7.30;;;;;;;13.90;100.00;102100.44;5055948;28;20031;-68
2023/09/14 07:12:14;;;;;;;12.30;6.88;;;;;;;14.03;100.00;102098.72;5056417;28;20103;-69
2023/09/14 07:14:40;;;;;;;14.00;7.50;;;;;;;14.06;100.00;102098.28;5055678;28;20498;-70
2023/09/14 07:17:05;;;;;;;14.18;7.03;;;;;;;14.16;100.00;102093.16;5065891;28;20448;-68
2023/09/14 07:19:30;;;;;;;14.30;7.18;;;;;;;14.25;100.00;102093.75;5055715;28;20036;-70
2023/09/14 07:21:56;;;;;;;15.82;7.72;;;;;;;14.34;100.00;102090.56;5055554;28;20037;-70
2023/09/14 07:24:22;;;;;;;18.77;7.95;;;;;;;14.41;100.00;102097.84;5055947;28;20033;-70
2023/09/14 07:26:47;;;;;;;13.90;7.80;;;;;;;14.47;100.00;102094.25;5055669;28;20155;-68
2023/09/14 07:29:12;;;;;;;14.80;7.47;;;;;;;14.54;100.00;102095.88;5055459;28;20476;-69
2023/09/14 07:31:39;;;;;;;13.95;8.00;;;;;;;14.59;100.00;102108.81;5043052;28;20029;-67
2023/09/14 07:34:05;;;;;;;16.48;7.97;;;;;;;14.66;100.00;102114.22;5083583;28;20436;-69
2023/09/14 07:36:30;;;;;;;17.70;8.35;;;;;;;14.77;100.00;102105.34;5062852;28;20144;-68
2023/09/14 07:38:55;;;;;;;17.35;8.18;;;;;;;14.85;100.00;102113.25;5055096;28;20025;-70
2023/09/14 07:41:21;;;;;;;17.55;8.52;;;;;;;14.91;100.00;102110.69;5057670;28;20033;-69
2023/09/14 07:43:46;;;;;;;15.18;7.65;;;;;;;14.99;100.00;102108.53;5055130;28;20111;-71
2023/09/14 07:46:11;;;;;;;22.27;8.30;;;;;;;15.07;100.00;102113.69;5037003;28;20464;-69
2023/09/14 07:48:37;;;;;;;13.55;7.55;;;;;;;15.14;100.00;102112.78;5055117;28;20029;-68
2023/09/14 07:51:02;;;;;;;17.15;7.38;;;;;;;15.24;100.00;102113.94;5055114;28;20032;-72
2023/09/14 07:53:27;;;;;;;16.05;8.15;;;;;;;15.23;100.00;102114.16;5037239;28;20029;-70
2023/09/14 07:55:53;;;;;;;17.80;7.70;;;;;;;15.32;100.00;102118.25;5036780;28;20776;-67
2023/09/14 07:58:20;;;;;;;16.05;7.28;;;;;;;15.34;100.00;102116.16;5055373;28;20039;-72
2023/09/14 08:00:46;;;;;;;18.67;7.97;;;;;;;15.35;100.00;102123.28;5052662;28;20028;-69
2023/09/14 08:03:13;;;;;;;13.68;7.75;;;;;;;15.36;100.00;102126.84;5053957;28;20045;-69
2023/09/14 08:05:39;;;;;;;19.55;8.40;;;;;;;15.44;100.00;102122.97;5054615;28;20033;-68
2023/09/14 08:08:04;;;;;;;17.95;7.90;;;;;;;15.50;100.00;102119.34;5054990;28;20032;-71
2023/09/14 08:10:29;;;;;;;18.30;8.80;;;;;;;15.58;100.00;102121.78;5037161;28;20033;-66
2023/09/14 08:12:55;;;;;;;14.95;7.80;;;;;;;15.64;100.00;102120.00;5053979;28;20517;-66
2023/09/14 08:15:20;;;;;;;16.85;8.40;;;;;;;15.66;100.00;102121.47;5054896;28;20039;-68
2023/09/14 08:17:46;;;;;;;17.98;8.27;;;;;;;15.68;100.00;102116.59;5054677;28;20029;-67
2023/09/14 08:20:11;;;;;;;13.75;7.80;;;;;;;15.79;100.00;102116.94;5055109;28;20032;-68
2023/09/14 08:22:37;;;;;;;15.27;8.90;;;;;;;15.86;100.00;102117.69;5055130;28;20039;-67
2023/09/14 08:25:03;;;;;;;14.77;8.48;;;;;;;15.89;100.00;102117.22;5057458;28;20159;-67
2023/09/14 08:27:28;;;;;;;15.38;9.00;;;;;;;15.91;100.00;102117.81;5055064;28;20021;-67
2023/09/14 08:29:54;;;;;;;14.43;8.30;;;;;;;16.06;100.00;102118.28;5054379;28;20041;-67
2023/09/14 08:32:20;;;;;;;16.45;9.60;;;;;;;16.15;100.00;102120.66;5054593;28;20112;-67
2023/09/14 08:34:46;;;;;;;15.38;9.68;;;;;;;16.10;100.00;102124.91;5054219;28;20036;-70
2023/09/14 08:37:11;;;;;;;17.10;9.90;;;;;;;16.19;100.00;102124.59;5054004;28;20599;-68
2023/09/14 08:39:39;;;;;;;18.75;10.23;;;;;;;16.27;100.00;102127.00;5054326;28;20374;-69
2023/09/14 08:42:05;;;;;;;15.38;8.48;;;;;;;16.40;100.00;102128.72;5054474;28;20033;-68
2023/09/14 08:44:34;;;;;;;17.15;9.90;;;;;;;16.39;100.00;102141.53;5053633;28;20078;-67
2023/09/14 08:47:01;;;;;;;17.90;10.95;;;;;;;16.33;100.00;102131.53;5055937;28;20033;-66
2023/09/14 08:49:28;;;;;;;18.88;10.43;;;;;;;16.34;100.00;102133.22;5075388;28;20035;-67
2023/09/14 08:51:55;;;;;;;14.13;10.27;;;;;;;16.39;100.00;102138.78;5073942;28;20033;-67
2023/09/14 08:54:21;;;;;;;18.77;10.77;;;;;;;16.44;100.00;102132.63;5055259;28;20129;-67
2023/09/14 08:56:49;;;;;;;18.52;11.27;;;;;;;16.50;100.00;102128.13;5073994;28;20412;-67
2023/09/14 08:59:16;;;;;;;17.08;10.80;;;;;;;16.57;100.00;102123.41;5055326;28;20020;-65
2023/09/14 09:01:44;;;;;;;16.60;10.98;;;;;;;16.69;100.00;102126.19;5051461;28;20040;-67
2023/09/14 09:04:10;;;;;;;14.05;9.82;;;;;;;16.74;100.00;102118.94;5053721;28;20041;-67
2023/09/14 09:06:37;;;;;;;13.05;9.18;;;;;;;16.80;100.00;102119.88;5053909;28;20025;-70
2023/09/14 09:09:03;;;;;;;15.07;8.57;;;;;;;16.79;100.00;102120.97;5061047;28;20032;-67
2023/09/14 09:11:30;;;;;;;14.23;9.95;;;;;;;16.87;100.00;102122.56;5073872;28;20052;-66
2023/09/14 09:13:55;;;;;;;15.38;9.57;;;;;;;16.85;100.00;102120.03;5065639;28;20116;-66
2023/09/14 09:16:21;;;;;;;14.07;9.27;;;;;;;16.92;100.00;102125.38;5045000;28;20460;-67
2023/09/14 09:19:06;;;;;;;12.48;8.32;;;;;;;16.91;100.00;102118.25;5073460;28;20074;-67
2023/09/14 09:21:36;;;;;;;15.68;8.82;;;;;;;16.95;100.00;102119.44;5073678;28;20514;-68
2023/09/14 09:24:06;;;;;;;12.98;8.43;;;;;;;16.88;100.00;102113.25;5072393;28;20132;-65
2023/09/14 09:26:36;;;;;;;10.23;7.28;;;;;;;17.06;100.00;102121.38;5073518;28;20032;-67
2023/09/14 09:29:14;;;;;;;10.30;7.45;;;;;;;17.04;100.00;102111.72;5067634;28;20043;-69
2023/09/14 09:31:41;;;;;;;12.38;7.15;;;;;;;17.10;100.00;102116.25;5053498;28;20060;-68
2023/09/14 09:34:08;;;;;;;11.60;6.47;;;;;;;17.21;100.00;102109.97;5053810;28;20025;-65
2023/09/14 09:36:34;;;;;;;12.18;7.15;;;;;;;17.17;100.00;102117.78;5053388;28;20354;-68
2023/09/14 09:39:04;;;;;;;11.95;6.72;;;;;;;17.21;100.00;102120.03;5051822;28;20028;-68
2023/09/14 09:41:34;;;;;;;10.18;5.57;;;;;;;17.26;100.00;102120.19;5053590;28;20033;-66
2023/09/14 09:44:05;;;;;;;9.27;6.30;;;;;;;17.38;100.00;102112.78;5052582;28;20025;-67
2023/09/14 09:46:33;;;;;;;10.15;6.28;;;;;;;17.50;100.00;102116.34;5068059;28;20102;-66
2023/09/14 09:48:59;;;;;;;10.38;6.65;;;;;;;17.58;100.00;102115.13;5070656;28;20043;-67
2023/09/14 09:51:25;;;;;;;8.05;5.00;;;;;;;17.64;100.00;102105.13;5073074;28;20028;-68
2023/09/14 09:54:05;;;;;;;10.43;6.88;;;;;;;17.65;100.00;102104.88;5072819;28;20109;-66
2023/09/14 09:56:32;;;;;;;9.77;6.05;;;;;;;17.75;100.00;102106.97;5073017;28;20397;-66
2023/09/14 09:59:01;;;;;;;12.20;6.65;;;;;;;17.67;100.00;102105.47;5054965;28;20029;-66
2023/09/14 10:01:27;;;;;;;9.93;6.20;;;;;;;17.77;100.00;102109.47;5033098;28;20384;-67
2023/09/14 10:03:56;;;;;;;11.25;5.95;;;;;;;17.83;100.00;102108.50;5073866;28;20048;-66
2023/09/14 10:06:21;;;;;;;10.45;5.93;;;;;;;17.80;100.00;102104.38;5083489;28;20070;-66
2023/09/14 10:08:56;;;;;;;10.02;5.38;;;;;;;17.79;100.00;102108.16;5072982;28;20040;-65
2023/09/14 10:11:23;;;;;;;11.07;6.22;;;;;;;17.73;100.00;102102.84;5073017;28;20452;-66
2023/09/14 10:13:49;;;;;;;12.52;6.95;;;;;;;17.67;100.00;102104.63;5072583;28;20035;-66
2023/09/14 10:16:21;;;;;;;7.38;5.00;;;;;;;17.67;100.00;102107.38;5072750;28;20025;-65
2023/09/14 10:18:49;;;;;;;8.35;4.68;;;;;;;17.71;100.00;102100.34;5052788;28;20103;-66
2023/09/14 10:21:16;;;;;;;9.02;5.13;;;;;;;17.76;100.00;102103.19;5051431;28;20029;-68
2023/09/14 10:23:43;;;;;;;12.82;4.60;;;;;;;17.78;100.00;102102.94;5052279;28;20128;-66
2023/09/14 10:26:08;;;;;;;8.50;4.93;;;;;;;17.84;100.00;102094.56;5052408;28;20075;-66
2023/09/14 10:28:35;;;;;;;8.38;5.30;;;;;;;17.98;100.00;102097.91;5052676;28;20029;-66
2023/09/14 10:31:02;;;;;;;7.85;4.65;;;;;;;18.16;100.00;102096.03;5052444;28;20029;-68
2023/09/14 10:33:28;;;;;;;8.35;4.47;;;;;;;18.18;100.00;102104.84;5052114;28;20036;-65
2023/09/14 10:35:53;;;;;;;10.05;5.72;;;;;;;18.28;100.00;102098.72;5052189;28;20033;-67
2023/09/14 10:38:23;;;;;;;14.68;5.07;;;;;;;18.20;100.00;102087.06;5052010;28;20037;-68
2023/09/14 10:40:52;;;;;;;8.52;4.32;;;;;;;18.23;100.00;102094.78;5052240;28;20079;-69
2023/09/14 10:43:17;;;;;;;9.93;3.90;;;;;;;18.25;100.00;102089.06;5052520;28;20063;-67
2023/09/14 10:45:45;;;;;;;8.35;4.20;;;;;;;18.28;100.00;102090.50;5052163;28;20056;-68
2023/09/14 10:48:18;;;;;;;5.68;3.92;;;;;;;18.26;100.00;102088.00;5051977;28;20033;-69
2023/09/14 10:50:44;;;;;;;7.25;4.20;;;;;;;18.40;100.00;102074.81;5051869;28;20487;-68
2023/09/14 10:53:09;;;;;;;7.75;4.13;;;;;;;18.57;100.00;102075.66;5034265;28;20055;-66
2023/09/14 10:55:38;;;;;;;10.15;4.20;;;;;;;18.76;100.00;102078.97;5052300;28;20052;-67
2023/09/14 10:58:04;;;;;;;7.28;3.95;;;;;;;18.92;100.00;102071.03;5052106;28;20524;-67
2023/09/14 11:00:35;;;;;;;7.75;4.05;;;;;;;18.87;100.00;102071.78;5049921;28;20146;-68
2023/09/14 11:03:00;;;;;;;;;;;;;;;18.92;100.00;102073.75;5052086;28;20040;-67
2023/09/14 11:05:43;;;;;;;3.53;2.47;;;;;;;18.75;93.41;102070.97;5034419;28;19912;-66
2023/09/14 11:08:10;;;;;;;5.40;2.40;;;;;;;18.55;75.13;102064.09;5051954;28;20053;-71
2023/09/14 11:10:37;;;;;;;8.95;2.83;;;;;;;18.56;84.95;102057.53;5059261;28;20052;-70
2023/09/14 11:13:20;;;;;;;6.50;2.72;;;;;;;18.57;88.26;102067.44;5072014;28;20063;-69